TimeEDT,TemperatureF,Dew PointF,Humidity,Sea Level PressureIn,VisibilityMPH,Wind Direction,Wind SpeedMPH,Gust SpeedMPH,PrecipitationIn,Events,Conditions,WindDirDegrees,DateUTC
12:53 AM,75.0,73.0,94,30.09,10.0,ENE,3.5,-,N/A,,Clear,70,2013-07-21 04:53:00
1:53 AM,73.9,73.0,97,30.07,10.0,Calm,Calm,-,N/A,,Clear,0,2013-07-21 05:53:00
2:53 AM,73.9,73.0,97,30.07,10.0,East,3.5,-,N/A,,Clear,100,2013-07-21 06:53:00
3:53 AM,75.0,73.9,96,30.06,10.0,Calm,Calm,-,N/A,,Clear,0,2013-07-21 07:53:00
4:53 AM,75.0,73.9,96,30.06,10.0,ESE,3.5,-,0.00,Rain,Light Rain,120,2013-07-21 08:53:00
5:19 AM,73.4,73.4,100,30.07,10.0,Calm,Calm,-,0.00,,Scattered Clouds,0,2013-07-21 09:19:00
5:28 AM,73.4,73.4,100,30.07,10.0,Calm,Calm,-,0.00,,Mostly Cloudy,0,2013-07-21 09:28:00
5:41 AM,73.4,73.4,100,30.07,10.0,Calm,Calm,-,0.00,,Mostly Cloudy,0,2013-07-21 09:41:00
5:53 AM,75.0,73.9,96,30.07,10.0,Calm,Calm,-,0.00,,Mostly Cloudy,0,2013-07-21 09:53:00
6:35 AM,75.2,75.2,100,30.08,2.0,Variable,5.8,-,0.07,Rain,Heavy Rain,0,2013-07-21 10:35:00
6:50 AM,75.2,75.2,100,30.09,8.0,South,5.8,-,0.10,Rain,Light Rain,170,2013-07-21 10:50:00
6:53 AM,75.0,75.0,100,30.09,9.0,South,4.6,-,0.10,Rain,Light Rain,180,2013-07-21 10:53:00
7:53 AM,75.9,75.9,100,30.11,10.0,Calm,Calm,-,0.00,,Partly Cloudy,0,2013-07-21 11:53:00
8:53 AM,77.0,75.9,96,30.11,10.0,Calm,Calm,-,N/A,,Partly Cloudy,0,2013-07-21 12:53:00
9:53 AM,77.0,77.0,100,30.13,10.0,Calm,Calm,-,0.00,Rain,Light Rain,0,2013-07-21 13:53:00
10:04 AM,78.8,77.0,94,30.13,10.0,NE,3.5,-,0.00,Rain,Light Rain,40,2013-07-21 14:04:00
10:53 AM,79.0,78.1,97,30.13,10.0,Calm,Calm,-,0.00,,Clear,0,2013-07-21 14:53:00
11:53 AM,82.0,77.0,85,30.13,10.0,SW,5.8,-,N/A,,Scattered Clouds,220,2013-07-21 15:53:00
12:18 PM,82.4,77.0,84,30.14,10.0,South,4.6,-,N/A,,Mostly Cloudy,170,2013-07-21 16:18:00
12:35 PM,82.4,75.2,79,30.14,10.0,South,4.6,-,N/A,,Scattered Clouds,180,2013-07-21 16:35:00
12:53 PM,84.0,75.0,74,30.13,10.0,SSW,5.8,-,N/A,,Partly Cloudy,200,2013-07-21 16:53:00
1:53 PM,84.9,70.0,61,30.11,10.0,SW,10.4,-,N/A,,Clear,220,2013-07-21 17:53:00
2:53 PM,87.1,73.9,65,30.09,10.0,WSW,8.1,-,N/A,,Clear,240,2013-07-21 18:53:00
3:53 PM,86.0,73.0,65,30.06,10.0,SW,8.1,-,N/A,,Mostly Cloudy,230,2013-07-21 19:53:00
4:07 PM,84.2,75.2,74,30.07,1.5,West,10.4,-,0.11,Rain,Heavy Rain,260,2013-07-21 20:07:00
4:18 PM,82.4,73.4,74,30.07,10.0,Calm,Calm,-,0.18,Rain,Light Rain,0,2013-07-21 20:18:00
4:53 PM,86.0,75.0,70,30.05,10.0,WSW,10.4,-,0.18,Rain,Light Rain,250,2013-07-21 20:53:00
5:53 PM,84.0,73.0,69,30.05,10.0,West,8.1,-,0.00,Rain,Light Rain,260,2013-07-21 21:53:00
6:53 PM,82.9,75.0,77,30.06,10.0,WSW,8.1,-,0.00,,Clear,240,2013-07-21 22:53:00
7:53 PM,82.9,75.0,77,30.09,10.0,Calm,Calm,-,N/A,,Clear,0,2013-07-21 23:53:00
8:53 PM,79.0,71.1,77,30.12,10.0,East,5.8,-,N/A,,Partly Cloudy,80,2013-07-22 00:53:00
9:53 PM,78.1,72.0,81,30.12,10.0,ENE,3.5,-,N/A,,Clear,70,2013-07-22 01:53:00
10:53 PM,77.0,71.1,82,30.13,10.0,East,6.9,-,N/A,,Clear,100,2013-07-22 02:53:00
11:53 PM,75.9,71.1,85,30.14,10.0,ESE,4.6,-,N/A,,Scattered Clouds,110,2013-07-22 03:53:00